Time;durP1;ratioP1;P1;durP2;ratioP2;P2;SDS_P1;SDS_P2;PMS_P1;PMS_P2;Temp;Humidity;BMP_temperature;BMP_pressure;BME280_temperature;BME280_humidity;BME280_pressure;Samples;Min_cycle;Max_cycle;Signal;HPM_P1;HPM_P2
2021/06/02 00:02:02;;;;;;;1.60;1.42;;;;;;;;;;6305458;22;19990;-83
2021/06/02 00:04:29;;;;;;;4.38;1.60;;;;;;;;;;6304570;22;20003;-82
2021/06/02 00:06:59;;;;;;;2.63;1.50;;;;;;;;;;6305876;22;20019;-84
2021/06/02 00:09:25;;;;;;;6.45;1.58;;;;;;;;;;6304872;22;20011;-83
2021/06/02 00:11:51;;;;;;;3.83;1.80;;;;;;;;;;6305037;22;20019;-84
2021/06/02 00:14:19;;;;;;;4.68;1.60;;;;;;;;;;6305075;22;20004;-82
2021/06/02 00:16:45;;;;;;;2.63;1.50;;;;;;;;;;6305271;22;20026;-83
2021/06/02 00:19:10;;;;;;;4.85;1.75;;;;;;;;;;6304704;22;19988;-82
2021/06/02 00:21:36;;;;;;;4.43;1.85;;;;;;;;;;6305046;22;19983;-83
2021/06/02 00:24:01;;;;;;;3.70;1.60;;;;;;;;;;6304725;22;20031;-83
2021/06/02 00:26:27;;;;;;;2.08;1.52;;;;;;;;;;6306025;22;20003;-83
2021/06/02 00:28:53;;;;;;;3.15;1.67;;;;;;;;;;6305059;22;20042;-82
2021/06/02 00:31:19;;;;;;;4.20;1.60;;;;;;;;;;6304268;22;20003;-83
2021/06/02 00:33:45;;;;;;;1.75;1.30;;;;;;;;;;6305694;22;19992;-83
2021/06/02 00:36:12;;;;;;;3.38;1.60;;;;;;;;;;6305284;22;20014;-83
2021/06/02 00:38:37;;;;;;;4.97;1.50;;;;;;;;;;6304658;22;20015;-83
2021/06/02 00:41:03;;;;;;;3.13;1.63;;;;;;;;;;6304922;22;20011;-83
2021/06/02 00:43:30;;;;;;;3.05;1.70;;;;;;;;;;6305172;22;20000;-83
2021/06/02 00:45:56;;;;;;;4.53;1.60;;;;;;;;;;6304196;22;20004;-83
2021/06/02 00:48:21;;;;;;;2.10;1.70;;;;;;;;;;6305712;22;19996;-83
2021/06/02 00:50:50;;;;;;;3.58;1.70;;;;;;;;;;6304860;22;20002;-83
2021/06/02 00:53:16;;;;;;;3.67;2.25;;;;;;;;;;6305998;22;19987;-83
2021/06/02 00:55:42;;;;;;;2.10;1.70;;;;;;;;;;6305428;22;20083;-83
2021/06/02 00:58:09;;;;;;;6.78;1.98;;;;;;;;;;6304701;22;19995;-83
2021/06/02 01:00:34;;;;;;;2.50;1.58;;;;;;;;;;6305150;22;20007;-84
2021/06/02 01:03:02;;;;;;;3.05;1.75;;;;;;;;;;6305011;22;19992;-82
2021/06/02 01:05:27;;;;;;;2.72;1.80;;;;;;;;;;6304866;22;19995;-83
2021/06/02 01:07:53;;;;;;;4.05;1.67;;;;;;;;;;6304601;22;19988;-83
2021/06/02 01:10:19;;;;;;;3.55;1.73;;;;;;;;;;6304859;22;20031;-84
2021/06/02 01:12:47;;;;;;;3.33;1.70;;;;;;;;;;6305713;22;19980;-82
2021/06/02 01:15:13;;;;;;;6.03;1.90;;;;;;;;;;6279024;22;19991;-84
2021/06/02 01:17:39;;;;;;;2.78;1.85;;;;;;;;;;6331001;22;19984;-83
2021/06/02 01:20:05;;;;;;;3.65;1.73;;;;;;;;;;6330759;22;19992;-83
2021/06/02 01:22:34;;;;;;;2.53;1.80;;;;;;;;;;6331179;22;19984;-84
2021/06/02 01:25:19;;;;;;;4.30;1.67;;;;;;;;;;6305154;22;20010;-83
2021/06/02 01:27:45;;;;;;;3.72;1.80;;;;;;;;;;6305480;22;20003;-82
2021/06/02 01:30:19;;;;;;;3.63;1.50;;;;;;;;;;6304978;22;19998;-83
2021/06/02 01:32:57;;;;;;;2.28;1.80;;;;;;;;;;6305446;22;19983;-83
2021/06/02 01:35:32;;;;;;;2.67;1.70;;;;;;;;;;6305912;22;20094;-84
2021/06/02 01:38:03;;;;;;;4.20;1.80;;;;;;;;;;6306153;22;20006;-82
2021/06/02 01:40:44;;;;;;;3.15;1.55;;;;;;;;;;6304986;22;19988;-83
2021/06/02 01:43:28;;;;;;;3.67;1.90;;;;;;;;;;6305606;22;19987;-82
2021/06/02 01:46:13;;;;;;;4.00;1.67;;;;;;;;;;6331052;22;19988;-84
2021/06/02 01:48:48;;;;;;;4.53;1.98;;;;;;;;;;6305770;22;19995;-83
2021/06/02 01:51:32;;;;;;;2.97;1.88;;;;;;;;;;6305313;22;19976;-83
2021/06/02 01:54:10;;;;;;;5.22;1.83;;;;;;;;;;6305489;22;20022;-82
2021/06/02 01:56:54;;;;;;;2.50;1.70;;;;;;;;;;6305103;22;20039;-83
2021/06/02 01:59:38;;;;;;;2.40;1.57;;;;;;;;;;6305189;22;20024;-83
2021/06/02 02:02:18;;;;;;;3.08;2.00;;;;;;;;;;6305364;22;20241;-82
2021/06/02 02:05:03;;;;;;;3.25;1.80;;;;;;;;;;6304001;22;19983;-83
2021/06/02 02:07:47;;;;;;;2.40;1.90;;;;;;;;;;6305099;22;19996;-83
2021/06/02 02:10:38;;;;;;;4.60;1.85;;;;;;;;;;6305034;22;20259;-83
2021/06/02 02:13:23;;;;;;;4.07;1.83;;;;;;;;;;6269920;22;19979;-83
2021/06/02 02:16:07;;;;;;;5.57;1.92;;;;;;;;;;6330076;22;19979;-82
2021/06/02 02:18:43;;;;;;;5.63;1.80;;;;;;;;;;6330160;22;20004;-83
2021/06/02 02:21:11;;;;;;;3.70;1.98;;;;;;;;;;6304733;22;20035;-83
2021/06/02 02:23:37;;;;;;;3.22;2.00;;;;;;;;;;6304596;22;20008;-82
2021/06/02 02:26:20;;;;;;;3.42;1.90;;;;;;;;;;6304886;22;20003;-83
2021/06/02 02:29:04;;;;;;;3.30;2.13;;;;;;;;;;6304852;22;20082;-82
2021/06/02 02:31:50;;;;;;;3.03;2.03;;;;;;;;;;6330046;22;19990;-83
2021/06/02 02:34:19;;;;;;;6.13;2.20;;;;;;;;;;6304513;22;19991;-82
2021/06/02 02:36:46;;;;;;;3.78;1.92;;;;;;;;;;6303964;22;19984;-83
2021/06/02 02:39:27;;;;;;;4.60;2.03;;;;;;;;;;6304287;22;20013;-83
2021/06/02 02:42:12;;;;;;;4.28;2.10;;;;;;;;;;6304325;22;20071;-83
2021/06/02 02:44:52;;;;;;;3.22;1.83;;;;;;;;;;6303639;22;20007;-83
2021/06/02 02:47:19;;;;;;;5.07;2.30;;;;;;;;;;6304111;22;20051;-83
2021/06/02 02:50:03;;;;;;;3.88;1.80;;;;;;;;;;6304427;22;20002;-83
2021/06/02 02:52:51;;;;;;;4.05;2.15;;;;;;;;;;6303696;22;19984;-82
2021/06/02 02:55:22;;;;;;;4.20;2.05;;;;;;;;;;6302294;22;20007;-83
2021/06/02 02:57:59;;;;;;;2.75;1.90;;;;;;;;;;6304295;22;19992;-81
2021/06/02 03:00:32;;;;;;;3.65;2.22;;;;;;;;;;6304842;22;19980;-82
2021/06/02 03:02:59;;;;;;;3.03;1.83;;;;;;;;;;6304785;22;20000;-81
2021/06/02 03:05:32;;;;;;;2.60;1.70;;;;;;;;;;6304670;22;20000;-83
2021/06/02 03:08:07;;;;;;;3.55;1.88;;;;;;;;;;6304224;22;20013;-81
2021/06/02 03:10:34;;;;;;;3.35;2.08;;;;;;;;;;6306724;22;19992;-81
2021/06/02 03:13:03;;;;;;;2.97;2.08;;;;;;;;;;6307088;22;20014;-82
2021/06/02 03:15:39;;;;;;;4.90;2.08;;;;;;;;;;6306878;22;20039;-82
2021/06/02 03:18:17;;;;;;;3.63;2.08;;;;;;;;;;6307059;22;19996;-83
2021/06/02 03:20:57;;;;;;;6.82;2.17;;;;;;;;;;6307180;22;19987;-83
2021/06/02 03:23:26;;;;;;;9.43;1.92;;;;;;;;;;6312425;22;20018;-82
2021/06/02 03:26:03;;;;;;;4.93;1.75;;;;;;;;;;6337299;22;19994;-83
2021/06/02 03:28:34;;;;;;;2.70;2.05;;;;;;;;;;6310553;22;20035;-82
2021/06/02 03:31:21;;;;;;;3.75;1.92;;;;;;;;;;6338060;22;19991;-82
2021/06/02 03:34:05;;;;;;;3.40;1.92;;;;;;;;;;6336799;22;19987;-83
2021/06/02 03:36:33;;;;;;;2.63;2.00;;;;;;;;;;6337998;22;20825;-83
2021/06/02 03:39:07;;;;;;;2.88;2.00;;;;;;;;;;6311275;22;19996;-82
2021/06/02 03:41:51;;;;;;;4.15;2.00;;;;;;;;;;6311425;22;20006;-83
2021/06/02 03:44:24;;;;;;;5.60;2.00;;;;;;;;;;6338060;22;19975;-82
2021/06/02 03:47:08;;;;;;;3.00;1.80;;;;;;;;;;6337288;22;20025;-83
2021/06/02 03:49:55;;;;;;;3.57;2.13;;;;;;;;;;6336358;22;20013;-83
2021/06/02 03:52:29;;;;;;;4.70;1.90;;;;;;;;;;6310151;22;20010;-83
2021/06/02 03:55:06;;;;;;;2.58;1.88;;;;;;;;;;6336351;22;19999;-82
2021/06/02 03:57:37;;;;;;;3.67;2.00;;;;;;;;;;6334882;22;20013;-82
2021/06/02 04:00:10;;;;;;;4.53;2.25;;;;;;;;;;6331604;22;20408;-82
2021/06/02 04:02:57;;;;;;;3.40;2.05;;;;;;;;;;6301892;22;20011;-82
2021/06/02 04:05:40;;;;;;;3.22;1.90;;;;;;;;;;6299862;22;19995;-80
2021/06/02 04:08:05;;;;;;;2.50;1.80;;;;;;;;;;6333252;22;20025;-82
2021/06/02 04:10:43;;;;;;;3.95;2.10;;;;;;;;;;6308058;22;19999;-81
2021/06/02 04:13:26;;;;;;;2.90;2.17;;;;;;;;;;6335394;22;20034;-82
2021/06/02 04:15:55;;;;;;;4.05;2.08;;;;;;;;;;6335465;22;19996;-83
2021/06/02 04:18:25;;;;;;;3.58;2.10;;;;;;;;;;6335864;22;19988;-82
2021/06/02 04:20:50;;;;;;;3.92;2.00;;;;;;;;;;6308742;22;20003;-84
2021/06/02 04:23:17;;;;;;;4.22;2.13;;;;;;;;;;6335375;22;20054;-83
2021/06/02 04:25:44;;;;;;;4.32;2.00;;;;;;;;;;6307708;22;20002;-82
2021/06/02 04:28:12;;;;;;;3.63;1.98;;;;;;;;;;6288011;22;19999;-82
2021/06/02 04:30:37;;;;;;;4.55;2.20;;;;;;;;;;6289253;22;20002;-82
2021/06/02 04:33:04;;;;;;;4.32;2.30;;;;;;;;;;6322732;22;19996;-81
2021/06/02 04:35:30;;;;;;;2.95;1.85;;;;;;;;;;6306736;22;20026;-83
2021/06/02 04:37:57;;;;;;;3.45;2.15;;;;;;;;;;6335162;22;20099;-82
2021/06/02 04:40:22;;;;;;;3.05;1.98;;;;;;;;;;6308582;22;19995;-82
2021/06/02 04:42:50;;;;;;;4.22;2.00;;;;;;;;;;6322778;22;20003;-80
2021/06/02 04:45:29;;;;;;;2.78;1.80;;;;;;;;;;6329583;22;19999;-80
2021/06/02 04:47:57;;;;;;;3.97;2.10;;;;;;;;;;6333002;22;20007;-81
2021/06/02 04:50:25;;;;;;;3.75;2.40;;;;;;;;;;6306948;22;20003;-83
2021/06/02 04:53:09;;;;;;;4.43;1.80;;;;;;;;;;6335255;22;19995;-82
2021/06/02 04:55:35;;;;;;;3.33;2.10;;;;;;;;;;6308953;22;19983;-83
2021/06/02 04:58:16;;;;;;;5.97;1.98;;;;;;;;;;6332577;22;20007;-83
2021/06/02 05:01:00;;;;;;;4.18;2.40;;;;;;;;;;6306385;22;19991;-82
2021/06/02 05:03:51;;;;;;;4.40;2.17;;;;;;;;;;6333548;22;19998;-82
2021/06/02 05:06:39;;;;;;;5.30;2.15;;;;;;;;;;6299251;22;20010;-82
2021/06/02 05:09:09;;;;;;;3.47;2.13;;;;;;;;;;6333224;22;20003;-81
2021/06/02 05:11:53;;;;;;;3.70;2.30;;;;;;;;;;6332691;22;20047;-81
2021/06/02 05:14:31;;;;;;;3.97;2.00;;;;;;;;;;6332544;22;20288;-82
2021/06/02 05:17:09;;;;;;;2.85;2.05;;;;;;;;;;6328565;22;20022;-81
2021/06/02 05:22:18;;;;;;;3.75;2.20;;;;;;;;;;6331329;22;20011;-82
2021/06/02 05:24:49;;;;;;;6.72;1.90;;;;;;;;;;6303819;22;20023;-81
2021/06/02 05:27:34;;;;;;;3.03;1.90;;;;;;;;;;6334064;22;19979;-82
2021/06/02 05:30:22;;;;;;;2.83;2.20;;;;;;;;;;6332706;22;19991;-82
2021/06/02 05:33:03;;;;;;;3.95;1.98;;;;;;;;;;6329951;22;19999;-82
2021/06/02 05:35:37;;;;;;;3.53;1.80;;;;;;;;;;6304000;22;19992;-81
2021/06/02 05:38:03;;;;;;;2.80;2.00;;;;;;;;;;6330101;22;20021;-81
2021/06/02 05:40:47;;;;;;;3.20;1.80;;;;;;;;;;6304768;22;19995;-82
2021/06/02 05:43:12;;;;;;;5.67;1.80;;;;;;;;;;6332707;22;19991;-82
2021/06/02 05:45:53;;;;;;;4.15;2.05;;;;;;;;;;6307753;22;20223;-83
2021/06/02 05:48:25;;;;;;;3.75;1.73;;;;;;;;;;6335308;22;20010;-82
2021/06/02 05:51:10;;;;;;;3.75;1.77;;;;;;;;;;6308282;22;19979;-83
2021/06/02 05:53:35;;;;;;;;;;;;;;;;;;6308627;22;20011;-83
2021/06/02 05:56:20;;;;;;;6.85;2.03;;;;;;;;;;6333712;22;19914;-82
2021/06/02 05:58:51;;;;;;;3.55;1.70;;;;;;;;;;6333604;22;20030;-82
2021/06/02 06:01:17;;;;;;;3.83;1.90;;;;;;;;;;6306796;22;20019;-83
2021/06/02 06:04:01;;;;;;;5.65;1.90;;;;;;;;;;6306059;22;20003;-82
2021/06/02 06:06:27;;;;;;;8.35;1.75;;;;;;;;;;6332507;22;20018;-82
2021/06/02 06:09:11;;;;;;;4.50;1.88;;;;;;;;;;6332981;22;20011;-82
2021/06/02 06:11:40;;;;;;;2.92;1.92;;;;;;;;;;6335729;22;20027;-82
2021/06/02 06:14:24;;;;;;;7.03;2.00;;;;;;;;;;6307432;22;20034;-82
2021/06/02 06:17:16;;;;;;;5.25;2.30;;;;;;;;;;6330585;22;19999;-82
2021/06/02 06:19:51;;;;;;;11.80;2.22;;;;;;;;;;6329244;22;20006;-82
2021/06/02 06:22:25;;;;;;;9.43;2.10;;;;;;;;;;6332436;22;20000;-82
2021/06/02 06:24:52;;;;;;;5.07;1.92;;;;;;;;;;6331256;22;20006;-81
2021/06/02 06:27:26;;;;;;;5.03;2.05;;;;;;;;;;6329838;22;19987;-82
2021/06/02 06:30:12;;;;;;;4.95;1.95;;;;;;;;;;6328642;22;20021;-81
2021/06/02 06:32:40;;;;;;;5.65;1.90;;;;;;;;;;6328961;22;19996;-81
2021/06/02 06:35:06;;;;;;;8.00;1.90;;;;;;;;;;6304350;22;20034;-82
2021/06/02 06:37:42;;;;;;;5.93;2.00;;;;;;;;;;6329017;22;19994;-81
2021/06/02 06:40:09;;;;;;;6.45;1.92;;;;;;;;;;6329616;22;20011;-82
2021/06/02 06:42:39;;;;;;;4.32;2.00;;;;;;;;;;6304716;22;20011;-82
2021/06/02 06:45:07;;;;;;;5.50;1.90;;;;;;;;;;6333263;22;19985;-82
2021/06/02 06:47:34;;;;;;;3.13;2.00;;;;;;;;;;6332648;22;20003;-83
2021/06/02 06:50:01;;;;;;;2.88;1.92;;;;;;;;;;6306355;22;19991;-82
2021/06/02 06:52:27;;;;;;;4.72;1.92;;;;;;;;;;6280747;22;19999;-82
2021/06/02 06:55:11;;;;;;;4.25;2.00;;;;;;;;;;6305595;22;19990;-82
2021/06/02 06:57:43;;;;;;;4.53;1.75;;;;;;;;;;6332551;22;20033;-81
2021/06/02 07:00:09;;;;;;;2.53;1.90;;;;;;;;;;6333047;22;19984;-82
2021/06/02 07:02:37;;;;;;;1.95;1.65;;;;;;;;;;6280443;22;20014;-82
2021/06/02 07:05:04;;;;;;;5.53;1.98;;;;;;;;;;6305802;22;20029;-82
2021/06/02 07:07:31;;;;;;;3.20;1.60;;;;;;;;;;6331714;22;20003;-81
2021/06/02 07:09:56;;;;;;;3.67;1.80;;;;;;;;;;6333582;22;19975;-82
2021/06/02 07:12:24;;;;;;;7.25;2.20;;;;;;;;;;6305507;22;20009;-81
2021/06/02 07:14:50;;;;;;;5.28;2.05;;;;;;;;;;6331790;22;20000;-82
2021/06/02 07:17:16;;;;;;;3.67;2.03;;;;;;;;;;6306816;22;20011;-82
2021/06/02 07:19:43;;;;;;;2.75;2.10;;;;;;;;;;6306062;22;20007;-83
2021/06/02 07:22:09;;;;;;;2.90;1.75;;;;;;;;;;6330953;22;19991;-82
2021/06/02 07:24:35;;;;;;;4.70;1.90;;;;;;;;;;6278529;22;20010;-82
2021/06/02 07:27:00;;;;;;;5.03;1.83;;;;;;;;;;6305158;22;19994;-82
2021/06/02 07:29:26;;;;;;;3.65;2.20;;;;;;;;;;6304760;22;20011;-81
2021/06/02 07:31:51;;;;;;;4.10;1.70;;;;;;;;;;6331254;22;20002;-82
2021/06/02 07:34:17;;;;;;;4.45;2.00;;;;;;;;;;6330870;22;20043;-81
2021/06/02 07:36:42;;;;;;;6.13;1.90;;;;;;;;;;6303793;22;19999;-82
2021/06/02 07:39:08;;;;;;;5.07;2.00;;;;;;;;;;6331134;22;19995;-81
2021/06/02 07:41:33;;;;;;;3.40;1.83;;;;;;;;;;6278554;22;19995;-82
2021/06/02 07:43:58;;;;;;;3.95;2.10;;;;;;;;;;6330181;22;19991;-80
2021/06/02 07:46:23;;;;;;;5.07;1.88;;;;;;;;;;6330207;22;19987;-82
2021/06/02 07:48:51;;;;;;;6.78;2.03;;;;;;;;;;6278348;22;20003;-81
2021/06/02 07:51:16;;;;;;;3.55;1.90;;;;;;;;;;6278841;22;19999;-81
2021/06/02 07:53:41;;;;;;;4.22;2.00;;;;;;;;;;6305407;22;20066;-82
2021/06/02 07:56:07;;;;;;;7.10;1.98;;;;;;;;;;6332624;22;20003;-82
2021/06/02 07:58:32;;;;;;;4.47;1.95;;;;;;;;;;6332703;22;20019;-81
2021/06/02 08:00:58;;;;;;;3.42;2.08;;;;;;;;;;6307257;22;20013;-82
2021/06/02 08:03:23;;;;;;;3.28;1.98;;;;;;;;;;6332692;22;20014;-81
2021/06/02 08:05:49;;;;;;;4.53;2.20;;;;;;;;;;6334534;22;19983;-82
2021/06/02 08:08:14;;;;;;;4.25;1.98;;;;;;;;;;6333229;22;20045;-81
2021/06/02 08:10:40;;;;;;;2.30;1.73;;;;;;;;;;6280094;22;20004;-82
2021/06/02 08:13:06;;;;;;;3.45;2.00;;;;;;;;;;6307333;22;20051;-82
2021/06/02 08:15:31;;;;;;;2.95;1.85;;;;;;;;;;6333624;22;20018;-82
2021/06/02 08:17:57;;;;;;;5.88;2.08;;;;;;;;;;6306747;22;20003;-83
2021/06/02 08:20:22;;;;;;;2.75;1.90;;;;;;;;;;6307181;22;20019;-82
2021/06/02 08:22:47;;;;;;;3.40;2.13;;;;;;;;;;6332501;22;20074;-82
2021/06/02 08:25:14;;;;;;;3.75;1.95;;;;;;;;;;6333035;22;19995;-82
2021/06/02 08:27:40;;;;;;;2.80;1.80;;;;;;;;;;6333684;22;19999;-82
2021/06/02 08:30:07;;;;;;;5.35;1.83;;;;;;;;;;6281354;22;19991;-82
2021/06/02 08:32:32;;;;;;;5.82;2.10;;;;;;;;;;6332879;22;20023;-82
2021/06/02 08:34:57;;;;;;;4.85;1.90;;;;;;;;;;6280049;22;20007;-81
2021/06/02 08:37:23;;;;;;;5.95;2.10;;;;;;;;;;6333328;22;19983;-82
2021/06/02 08:39:49;;;;;;;8.23;2.17;;;;;;;;;;6280776;22;20067;-81
2021/06/02 08:42:15;;;;;;;6.07;1.95;;;;;;;;;;6331915;22;19995;-82
2021/06/02 08:44:40;;;;;;;4.75;1.90;;;;;;;;;;6279056;22;19999;-81
2021/06/02 08:47:06;;;;;;;4.00;2.10;;;;;;;;;;6332596;22;20002;-81
2021/06/02 08:49:31;;;;;;;4.63;1.88;;;;;;;;;;6332456;22;20003;-81
2021/06/02 08:51:57;;;;;;;4.85;2.28;;;;;;;;;;6332150;22;19999;-81
2021/06/02 08:54:23;;;;;;;3.58;1.90;;;;;;;;;;6304420;22;20057;-83
2021/06/02 08:56:49;;;;;;;3.05;1.80;;;;;;;;;;6330079;22;19999;-83
2021/06/02 08:59:17;;;;;;;7.15;2.00;;;;;;;;;;6331628;22;20006;-83
2021/06/02 09:01:42;;;;;;;3.05;2.00;;;;;;;;;;6305145;22;19999;-82
2021/06/02 09:04:09;;;;;;;2.85;2.10;;;;;;;;;;6330528;22;20007;-82
2021/06/02 09:06:39;;;;;;;5.80;2.30;;;;;;;;;;6306220;22;20007;-83
2021/06/02 09:09:05;;;;;;;3.72;2.15;;;;;;;;;;6306740;22;20007;-82
2021/06/02 09:11:36;;;;;;;4.95;2.28;;;;;;;;;;6304347;22;20444;-83
2021/06/02 09:14:01;;;;;;;4.93;2.25;;;;;;;;;;6330744;22;19991;-82
2021/06/02 09:16:28;;;;;;;4.05;2.15;;;;;;;;;;6330169;22;20010;-83
2021/06/02 09:18:57;;;;;;;3.40;2.20;;;;;;;;;;6304627;22;19995;-82
2021/06/02 09:21:26;;;;;;;6.80;2.00;;;;;;;;;;6277428;22;20013;-83
2021/06/02 09:23:52;;;;;;;6.18;2.00;;;;;;;;;;6330030;22;20003;-83
2021/06/02 09:26:24;;;;;;;5.93;2.03;;;;;;;;;;6257482;22;20086;-83
2021/06/02 09:28:53;;;;;;;4.07;2.00;;;;;;;;;;6282054;22;20007;-83
2021/06/02 09:31:25;;;;;;;2.80;1.80;;;;;;;;;;6282101;22;20098;-82
2021/06/02 09:33:51;;;;;;;6.43;2.03;;;;;;;;;;6282130;22;20458;-83
2021/06/02 09:36:16;;;;;;;4.65;2.10;;;;;;;;;;6297538;22;19999;-83
2021/06/02 09:38:50;;;;;;;4.38;1.88;;;;;;;;;;6304570;22;20054;-83
2021/06/02 09:41:15;;;;;;;3.43;2.10;;;;;;;;;;6330497;22;19987;-82
2021/06/02 09:43:40;;;;;;;6.50;2.13;;;;;;;;;;6331078;22;20200;-82
2021/06/02 09:46:07;;;;;;;7.10;2.33;;;;;;;;;;6332031;22;20034;-83
2021/06/02 09:49:00;;;;;;;4.57;2.53;;;;;;;;;;6332655;22;20019;-83
2021/06/02 09:51:29;;;;;;;3.40;2.10;;;;;;;;;;6301252;22;19983;-83
2021/06/02 09:53:58;;;;;;;5.90;2.25;;;;;;;;;;6331781;22;20033;-83
2021/06/02 09:56:36;;;;;;;6.13;2.13;;;;;;;;;;6307427;22;20013;-81
2021/06/02 09:59:02;;;;;;;5.95;2.15;;;;;;;;;;6334765;22;20025;-83
2021/06/02 10:01:44;;;;;;;4.60;2.30;;;;;;;;;;6334475;22;19998;-83
2021/06/02 10:04:12;;;;;;;5.75;2.20;;;;;;;;;;6328909;22;20018;-83
2021/06/02 10:06:39;;;;;;;9.00;2.45;;;;;;;;;;6335606;22;20404;-84
2021/06/02 10:09:06;;;;;;;5.95;2.17;;;;;;;;;;6282442;22;20007;-84
2021/06/02 10:11:34;;;;;;;5.20;1.90;;;;;;;;;;6308219;22;20063;-83
2021/06/02 10:14:01;;;;;;;5.03;2.13;;;;;;;;;;6284009;22;20042;-84
2021/06/02 10:16:33;;;;;;;6.95;2.40;;;;;;;;;;6309198;22;19983;-83
2021/06/02 10:18:59;;;;;;;5.30;2.20;;;;;;;;;;6307754;22;20007;-83
2021/06/02 10:21:24;;;;;;;8.05;2.17;;;;;;;;;;6282697;22;20007;-84
2021/06/02 10:23:50;;;;;;;4.75;2.72;;;;;;;;;;6335330;22;20011;-83
2021/06/02 10:26:16;;;;;;;4.25;2.17;;;;;;;;;;6335527;22;19982;-83
2021/06/02 10:28:44;;;;;;;6.03;2.22;;;;;;;;;;6335481;22;20078;-83
2021/06/02 10:31:11;;;;;;;4.03;2.00;;;;;;;;;;6335110;22;20005;-83
2021/06/02 10:33:36;;;;;;;7.60;2.15;;;;;;;;;;6334842;22;19994;-84
2021/06/02 10:36:09;;;;;;;5.20;2.20;;;;;;;;;;6308808;22;19988;-83
2021/06/02 10:38:54;;;;;;;7.47;2.40;;;;;;;;;;6296149;22;20023;-83
2021/06/02 10:41:27;;;;;;;6.55;2.38;;;;;;;;;;6304022;22;20003;-82
2021/06/02 10:43:58;;;;;;;5.15;2.38;;;;;;;;;;6304712;22;19991;-83
2021/06/02 10:46:24;;;;;;;5.53;2.20;;;;;;;;;;6279003;22;19984;-82
2021/06/02 10:48:54;;;;;;;4.70;2.10;;;;;;;;;;6278970;22;19991;-83
2021/06/02 10:51:26;;;;;;;5.93;2.33;;;;;;;;;;6278268;22;19983;-83
2021/06/02 10:54:11;;;;;;;6.95;2.50;;;;;;;;;;6278881;22;20003;-83
2021/06/02 10:56:37;;;;;;;;;;;;;;;;;;6305033;22;19990;-83
2021/06/02 10:59:02;;;;;;;4.68;2.10;;;;;;;;;;6305314;22;19887;-83
2021/06/02 11:01:31;;;;;;;6.07;2.60;;;;;;;;;;6305212;22;19979;-83
2021/06/02 11:04:09;;;;;;;3.92;2.13;;;;;;;;;;6305179;22;20029;-83
2021/06/02 11:06:42;;;;;;;7.95;2.20;;;;;;;;;;6305290;22;19990;-83
2021/06/02 11:09:08;;;;;;;5.10;2.30;;;;;;;;;;6278824;22;20090;-83
2021/06/02 11:11:34;;;;;;;7.97;2.40;;;;;;;;;;6279024;22;19992;-84
2021/06/02 11:14:19;;;;;;;6.40;2.40;;;;;;;;;;6279180;22;19987;-84
2021/06/02 11:16:45;;;;;;;5.70;2.28;;;;;;;;;;6305269;22;19988;-83
2021/06/02 11:19:11;;;;;;;4.57;2.08;;;;;;;;;;6305283;22;19999;-83
2021/06/02 11:21:44;;;;;;;6.97;2.15;;;;;;;;;;6278845;22;19980;-82
2021/06/02 11:24:28;;;;;;;5.63;2.20;;;;;;;;;;6304882;22;20010;-83
2021/06/02 11:26:53;;;;;;;7.82;2.60;;;;;;;;;;6303429;22;19983;-84
2021/06/02 11:29:19;;;;;;;7.00;2.20;;;;;;;;;;6274474;22;20007;-84
2021/06/02 11:31:44;;;;;;;5.35;2.30;;;;;;;;;;6306132;22;19983;-84
2021/06/02 11:34:29;;;;;;;4.90;2.17;;;;;;;;;;6306916;22;20003;-84
2021/06/02 11:37:05;;;;;;;7.22;2.30;;;;;;;;;;6306051;22;19980;-82
2021/06/02 11:39:30;;;;;;;6.68;2.30;;;;;;;;;;6280295;22;20007;-83
2021/06/02 11:41:58;;;;;;;5.28;2.38;;;;;;;;;;6280374;22;20007;-83
2021/06/02 11:44:26;;;;;;;5.30;2.60;;;;;;;;;;6306054;22;19987;-84
2021/06/02 11:46:51;;;;;;;5.82;2.42;;;;;;;;;;6254626;22;20025;-85
2021/06/02 11:49:24;;;;;;;7.22;2.70;;;;;;;;;;6305117;22;19999;-84
2021/06/02 11:51:50;;;;;;;8.65;2.50;;;;;;;;;;6306263;22;19976;-84
2021/06/02 11:54:16;;;;;;;4.65;2.38;;;;;;;;;;6280075;22;19995;-83
2021/06/02 11:56:42;;;;;;;5.38;2.60;;;;;;;;;;6306650;22;19996;-84
2021/06/02 11:59:07;;;;;;;5.00;2.38;;;;;;;;;;6306123;22;19988;-84
2021/06/02 12:01:32;;;;;;;4.18;2.40;;;;;;;;;;6280388;22;19984;-84
2021/06/02 12:03:59;;;;;;;5.45;2.58;;;;;;;;;;6306314;22;19987;-85
2021/06/02 12:06:32;;;;;;;8.50;2.50;;;;;;;;;;6255157;22;19983;-84
2021/06/02 12:08:59;;;;;;;5.47;2.70;;;;;;;;;;6280445;22;19995;-84
2021/06/02 12:11:25;;;;;;;4.78;2.40;;;;;;;;;;6266595;22;20008;-80
2021/06/02 12:16:26;;;;;;;8.23;2.90;;;;;;;;;;6302886;22;20054;-85
2021/06/02 12:18:51;;;;;;;4.07;2.03;;;;;;;;;;6280426;22;20008;-83
2021/06/02 12:21:19;;;;;;;4.60;2.30;;;;;;;;;;6306535;22;19990;-84
2021/06/02 12:23:51;;;;;;;4.65;2.85;;;;;;;;;;6280256;22;20060;-84
2021/06/02 12:26:22;;;;;;;7.83;3.17;;;;;;;;;;6305995;22;20043;-84
2021/06/02 12:28:48;;;;;;;9.52;2.47;;;;;;;;;;6279687;22;20241;-86
2021/06/02 12:31:32;;;;;;;9.30;2.80;;;;;;;;;;6294256;22;20066;-86
2021/06/02 12:34:00;;;;;;;4.53;2.72;;;;;;;;;;6306569;22;20010;-85
2021/06/02 12:41:37;;;;;;;4.50;2.65;;;;;;;;;;6295122;22;20059;-84
2021/06/02 12:44:03;;;;;;;5.82;2.40;;;;;;;;;;6306130;22;19980;-84
2021/06/02 12:59:28;;;;;;;4.55;2.33;;;;;;;;;;6304111;22;20007;-85
2021/06/02 13:01:56;;;;;;;6.93;2.28;;;;;;;;;;6268383;22;20016;-86
2021/06/02 13:04:22;;;;;;;6.57;2.38;;;;;;;;;;6275225;22;19985;-86
2021/06/02 13:06:52;;;;;;;3.92;2.38;;;;;;;;;;6275134;22;20068;-86
2021/06/02 13:09:19;;;;;;;6.15;2.80;;;;;;;;;;6275408;22;20023;-85
2021/06/02 13:11:45;;;;;;;4.97;2.85;;;;;;;;;;6274869;22;19989;-86
2021/06/02 13:14:10;;;;;;;7.03;3.00;;;;;;;;;;6274469;22;20015;-83
2021/06/02 13:16:36;;;;;;;7.18;3.78;;;;;;;;;;6274755;22;19980;-85
2021/06/02 13:19:06;;;;;;;6.40;3.35;;;;;;;;;;6274419;22;19992;-85
2021/06/02 13:21:34;;;;;;;6.00;3.63;;;;;;;;;;6274570;22;19984;-84
2021/06/02 13:24:13;;;;;;;6.45;3.30;;;;;;;;;;6275420;22;19984;-85
2021/06/02 13:26:51;;;;;;;6.88;3.50;;;;;;;;;;6279373;22;20016;-79
2021/06/02 13:29:16;;;;;;;4.85;2.95;;;;;;;;;;6336955;22;20014;-85
2021/06/02 13:31:44;;;;;;;5.30;2.78;;;;;;;;;;6310254;22;20051;-85
2021/06/02 13:34:10;;;;;;;6.72;3.25;;;;;;;;;;6336753;22;20006;-84
2021/06/02 13:36:43;;;;;;;6.45;3.50;;;;;;;;;;6336658;22;20026;-85
2021/06/02 13:39:12;;;;;;;8.93;3.63;;;;;;;;;;6336955;22;19983;-84
2021/06/02 13:41:38;;;;;;;7.25;3.50;;;;;;;;;;6309899;22;20003;-85
2021/06/02 13:44:03;;;;;;;6.53;3.88;;;;;;;;;;6310273;22;20005;-84
2021/06/02 13:46:29;;;;;;;6.57;3.70;;;;;;;;;;6335925;22;20010;-85
2021/06/02 13:48:55;;;;;;;6.57;3.50;;;;;;;;;;6305786;22;20015;-83
2021/06/02 13:51:27;;;;;;;8.20;3.85;;;;;;;;;;6305573;22;20031;-84
2021/06/02 13:53:59;;;;;;;8.38;4.18;;;;;;;;;;6304942;22;19991;-85
2021/06/02 13:56:25;;;;;;;8.45;3.60;;;;;;;;;;6278947;22;20000;-86
2021/06/02 13:59:09;;;;;;;10.07;4.38;;;;;;;;;;6305607;22;19986;-85
2021/06/02 14:04:09;;;;;;;10.75;4.38;;;;;;;;;;6291711;22;20063;-84
2021/06/02 14:06:35;;;;;;;11.70;4.43;;;;;;;;;;6278125;22;20022;-85
2021/06/02 14:29:42;;;;;;;6.88;4.15;;;;;;;;;;6279031;22;20051;-82
2021/06/02 14:54:17;;;;;;;6.47;3.53;;;;;;;;;;6304901;22;20210;-83
2021/06/02 14:56:46;;;;;;;6.47;3.50;;;;;;;;;;6310019;22;19991;-84
2021/06/02 15:01:47;;;;;;;8.48;3.67;;;;;;;;;;6297516;22;20033;-84
2021/06/02 15:04:12;;;;;;;5.13;3.70;;;;;;;;;;6279196;22;20004;-84
2021/06/02 15:12:02;;;;;;;8.32;3.58;;;;;;;;;;6284476;22;20074;-86
2021/06/02 15:37:36;;;;;;;7.35;3.58;;;;;;;;;;6275905;22;20004;-86
2021/06/02 16:00:43;;;;;;;7.57;3.70;;;;;;;;;;6292909;22;19933;-84
2021/06/02 16:10:53;;;;;;;7.63;3.45;;;;;;;;;;6306086;22;20008;-87
2021/06/02 16:13:19;;;;;;;7.20;3.58;;;;;;;;;;6280277;22;20014;-86
2021/06/02 16:15:46;;;;;;;5.55;3.60;;;;;;;;;;6305805;22;20006;-83
2021/06/02 16:18:11;;;;;;;6.40;3.67;;;;;;;;;;6306099;22;19987;-85
2021/06/02 16:20:41;;;;;;;6.28;3.78;;;;;;;;;;6277950;22;19992;-83
2021/06/02 16:23:06;;;;;;;8.77;3.75;;;;;;;;;;6304977;22;19996;-83
2021/06/02 16:25:31;;;;;;;7.80;3.92;;;;;;;;;;6305132;22;20031;-85
2021/06/02 16:27:58;;;;;;;7.25;3.90;;;;;;;;;;6278465;22;20023;-82
2021/06/02 16:30:24;;;;;;;8.90;4.15;;;;;;;;;;6279687;22;20003;-84
2021/06/02 16:32:49;;;;;;;5.50;3.85;;;;;;;;;;6301825;22;20010;-83
2021/06/02 16:35:17;;;;;;;11.35;4.25;;;;;;;;;;6304680;22;19999;-83
2021/06/02 16:37:44;;;;;;;6.78;4.18;;;;;;;;;;6279029;22;19988;-84
2021/06/02 16:40:10;;;;;;;7.05;3.60;;;;;;;;;;6279071;22;20010;-84
2021/06/02 16:42:40;;;;;;;9.68;3.60;;;;;;;;;;6278905;22;19992;-83
2021/06/02 16:45:05;;;;;;;5.80;3.67;;;;;;;;;;6305149;22;20006;-83
2021/06/02 16:47:40;;;;;;;10.73;4.15;;;;;;;;;;6278359;22;20007;-84
2021/06/02 16:50:06;;;;;;;5.72;4.07;;;;;;;;;;6277777;22;20025;-82
2021/06/02 16:52:32;;;;;;;5.30;3.70;;;;;;;;;;6278685;22;20011;-83
2021/06/02 16:55:02;;;;;;;7.88;3.95;;;;;;;;;;6279079;22;20019;-83
2021/06/02 16:57:31;;;;;;;7.43;4.15;;;;;;;;;;6305329;22;19992;-83
2021/06/02 16:59:57;;;;;;;8.00;4.53;;;;;;;;;;6304578;22;19996;-83
2021/06/02 17:02:24;;;;;;;7.18;4.88;;;;;;;;;;6277036;22;20003;-83
2021/06/02 17:04:53;;;;;;;8.82;4.43;;;;;;;;;;6305095;22;20010;-83
2021/06/02 17:07:19;;;;;;;6.78;4.53;;;;;;;;;;6277546;22;19980;-83
2021/06/02 17:09:47;;;;;;;7.65;4.30;;;;;;;;;;6274295;22;20023;-83
2021/06/02 17:12:14;;;;;;;6.85;4.22;;;;;;;;;;6280028;22;19992;-83